sensor_id;sensor_type;location;lat;lon;timestamp;pressure;altitude;pressure_sealevel;temperature;humidity
32933;BME280;19444;50.518;10.870;2022-09-01T00:01:21;96977.81;;;14.66;100.00
32933;BME280;19444;50.518;10.870;2022-09-01T00:04:24;96968.09;;;14.83;100.00
32933;BME280;19444;50.518;10.870;2022-09-01T00:07:24;96970.19;;;14.68;100.00
32933;BME280;19444;50.518;10.870;2022-09-01T00:10:21;96975.31;;;14.52;100.00
32933;BME280;19444;50.518;10.870;2022-09-01T00:13:18;96970.88;;;14.39;100.00
32933;BME280;19444;50.518;10.870;2022-09-01T00:16:17;96979.78;;;14.48;100.00
32933;BME280;19444;50.518;10.870;2022-09-01T00:19:15;96979.09;;;14.43;100.00
32933;BME280;19444;50.518;10.870;2022-09-01T00:22:12;96980.88;;;14.39;100.00
32933;BME280;19444;50.518;10.870;2022-09-01T00:25:09;96977.88;;;14.23;100.00
32933;BME280;19444;50.518;10.870;2022-09-01T00:28:06;96976.94;;;14.02;100.00
32933;BME280;19444;50.518;10.870;2022-09-01T00:31:05;96984.38;;;13.87;100.00
32933;BME280;19444;50.518;10.870;2022-09-01T00:34:03;96979.47;;;13.98;100.00
32933;BME280;19444;50.518;10.870;2022-09-01T00:37:00;96984.84;;;13.89;100.00
32933;BME280;19444;50.518;10.870;2022-09-01T00:39:57;96978.06;;;13.92;100.00
32933;BME280;19444;50.518;10.870;2022-09-01T00:42:54;96973.59;;;13.70;100.00
32933;BME280;19444;50.518;10.870;2022-09-01T00:45:51;96978.38;;;13.90;100.00
32933;BME280;19444;50.518;10.870;2022-09-01T00:52:35;96982.47;;;13.71;100.00
32933;BME280;19444;50.518;10.870;2022-09-01T00:55:36;96975.66;;;13.73;100.00
32933;BME280;19444;50.518;10.870;2022-09-01T00:58:35;96973.56;;;13.61;100.00
32933;BME280;19444;50.518;10.870;2022-09-01T01:01:33;96972.16;;;13.47;100.00
32933;BME280;19444;50.518;10.870;2022-09-01T01:04:33;96979.44;;;13.46;100.00
32933;BME280;19444;50.518;10.870;2022-09-01T01:07:30;96979.88;;;13.40;100.00
32933;BME280;19444;50.518;10.870;2022-09-01T01:10:40;96972.25;;;13.33;100.00
32933;BME280;19444;50.518;10.870;2022-09-01T01:13:54;96970.84;;;13.27;100.00
32933;BME280;19444;50.518;10.870;2022-09-01T01:16:51;96968.53;;;13.12;100.00
32933;BME280;19444;50.518;10.870;2022-09-01T01:19:55;96969.56;;;13.24;100.00
32933;BME280;19444;50.518;10.870;2022-09-01T01:23:27;96967.09;;;13.05;100.00
32933;BME280;19444;50.518;10.870;2022-09-01T01:26:27;96968.75;;;13.24;100.00
32933;BME280;19444;50.518;10.870;2022-09-01T01:29:26;96971.44;;;13.24;100.00
32933;BME280;19444;50.518;10.870;2022-09-01T01:32:27;96973.97;;;13.20;100.00
32933;BME280;19444;50.518;10.870;2022-09-01T01:35:25;96961.91;;;13.18;100.00
32933;BME280;19444;50.518;10.870;2022-09-01T01:38:24;96965.78;;;13.43;100.00
32933;BME280;19444;50.518;10.870;2022-09-01T01:41:21;96966.88;;;13.33;100.00
32933;BME280;19444;50.518;10.870;2022-09-01T01:44:24;96965.00;;;13.42;100.00
32933;BME280;19444;50.518;10.870;2022-09-01T01:47:23;96965.78;;;13.43;100.00
32933;BME280;19444;50.518;10.870;2022-09-01T01:50:32;96966.38;;;13.22;100.00
32933;BME280;19444;50.518;10.870;2022-09-01T01:53:32;96966.59;;;12.95;100.00
32933;BME280;19444;50.518;10.870;2022-09-01T01:56:29;96967.56;;;12.99;100.00
32933;BME280;19444;50.518;10.870;2022-09-01T01:59:26;96968.28;;;12.82;100.00
32933;BME280;19444;50.518;10.870;2022-09-01T02:02:25;96973.81;;;12.86;100.00
32933;BME280;19444;50.518;10.870;2022-09-01T02:05:26;96980.91;;;12.73;100.00
32933;BME280;19444;50.518;10.870;2022-09-01T02:08:24;96975.75;;;12.54;100.00
32933;BME280;19444;50.518;10.870;2022-09-01T02:11:24;96978.84;;;12.47;100.00
32933;BME280;19444;50.518;10.870;2022-09-01T02:14:22;96971.38;;;12.67;100.00
32933;BME280;19444;50.518;10.870;2022-09-01T02:17:20;96971.69;;;12.65;100.00
32933;BME280;19444;50.518;10.870;2022-09-01T02:20:17;96984.59;;;12.55;100.00
32933;BME280;19444;50.518;10.870;2022-09-01T02:23:14;96971.00;;;12.60;100.00
32933;BME280;19444;50.518;10.870;2022-09-01T02:26:14;96978.38;;;12.45;100.00
32933;BME280;19444;50.518;10.870;2022-09-01T02:29:19;96972.81;;;12.42;100.00
32933;BME280;19444;50.518;10.870;2022-09-01T02:32:17;96969.31;;;12.41;100.00
32933;BME280;19444;50.518;10.870;2022-09-01T02:35:17;96971.97;;;12.33;100.00
32933;BME280;19444;50.518;10.870;2022-09-01T02:38:15;96968.88;;;12.17;100.00
32933;BME280;19444;50.518;10.870;2022-09-01T02:41:14;96969.59;;;12.09;100.00
32933;BME280;19444;50.518;10.870;2022-09-01T02:44:16;96965.69;;;12.15;100.00
32933;BME280;19444;50.518;10.870;2022-09-01T02:47:17;96965.97;;;12.13;100.00
32933;BME280;19444;50.518;10.870;2022-09-01T02:50:14;96961.41;;;12.36;100.00
32933;BME280;19444;50.518;10.870;2022-09-01T02:53:14;96965.47;;;12.34;100.00
32933;BME280;19444;50.518;10.870;2022-09-01T02:56:11;96959.31;;;12.33;100.00
32933;BME280;19444;50.518;10.870;2022-09-01T02:59:10;96961.72;;;12.35;100.00
32933;BME280;19444;50.518;10.870;2022-09-01T03:02:09;96966.22;;;12.03;100.00
32933;BME280;19444;50.518;10.870;2022-09-01T03:05:06;96961.41;;;11.91;100.00
32933;BME280;19444;50.518;10.870;2022-09-01T03:08:06;96960.94;;;11.89;100.00
32933;BME280;19444;50.518;10.870;2022-09-01T03:11:07;96967.81;;;11.82;100.00
32933;BME280;19444;50.518;10.870;2022-09-01T03:14:09;96963.63;;;11.89;100.00
32933;BME280;19444;50.518;10.870;2022-09-01T03:17:06;96964.09;;;11.91;100.00
32933;BME280;19444;50.518;10.870;2022-09-01T03:20:03;96958.66;;;12.05;100.00
32933;BME280;19444;50.518;10.870;2022-09-01T03:23:02;96964.50;;;11.85;100.00
32933;BME280;19444;50.518;10.870;2022-09-01T03:26:01;96963.94;;;11.74;100.00
32933;BME280;19444;50.518;10.870;2022-09-01T03:28:58;96963.63;;;11.89;100.00
32933;BME280;19444;50.518;10.870;2022-09-01T03:31:55;96963.41;;;11.86;100.00
32933;BME280;19444;50.518;10.870;2022-09-01T03:34:52;96965.25;;;11.63;100.00
32933;BME280;19444;50.518;10.870;2022-09-01T03:37:49;96961.72;;;11.76;100.00
32933;BME280;19444;50.518;10.870;2022-09-01T03:40:52;96963.31;;;11.77;100.00
32933;BME280;19444;50.518;10.870;2022-09-01T03:43:50;96965.19;;;11.54;100.00
32933;BME280;19444;50.518;10.870;2022-09-01T03:46:50;96964.34;;;11.67;100.00
32933;BME280;19444;50.518;10.870;2022-09-01T03:49:48;96963.16;;;11.60;100.00
32933;BME280;19444;50.518;10.870;2022-09-01T03:52:51;96956.44;;;11.49;100.00
32933;BME280;19444;50.518;10.870;2022-09-01T03:55:49;96961.91;;;11.44;100.00
32933;BME280;19444;50.518;10.870;2022-09-01T03:58:46;96959.81;;;11.40;100.00
32933;BME280;19444;50.518;10.870;2022-09-01T04:01:44;96945.34;;;11.28;100.00
32933;BME280;19444;50.518;10.870;2022-09-01T04:04:41;96951.78;;;11.40;100.00
32933;BME280;19444;50.518;10.870;2022-09-01T04:07:37;96951.03;;;11.62;100.00
32933;BME280;19444;50.518;10.870;2022-09-01T04:10:41;96940.16;;;11.45;100.00
32933;BME280;19444;50.518;10.870;2022-09-01T04:13:50;96948.94;;;11.59;100.00
32933;BME280;19444;50.518;10.870;2022-09-01T04:16:48;96952.94;;;11.62;100.00
32933;BME280;19444;50.518;10.870;2022-09-01T04:20:04;96951.13;;;11.71;100.00
32933;BME280;19444;50.518;10.870;2022-09-01T04:23:07;96938.75;;;11.70;100.00
32933;BME280;19444;50.518;10.870;2022-09-01T04:26:11;96942.41;;;11.52;100.00
32933;BME280;19444;50.518;10.870;2022-09-01T04:29:10;96951.59;;;11.37;100.00
32933;BME280;19444;50.518;10.870;2022-09-01T04:32:09;96941.50;;;11.79;100.00
32933;BME280;19444;50.518;10.870;2022-09-01T04:35:08;96951.75;;;11.54;100.00
32933;BME280;19444;50.518;10.870;2022-09-01T04:38:12;96944.38;;;11.60;100.00
32933;BME280;19444;50.518;10.870;2022-09-01T04:41:12;96958.06;;;11.72;100.00
32933;BME280;19444;50.518;10.870;2022-09-01T04:44:13;96935.59;;;11.68;100.00
32933;BME280;19444;50.518;10.870;2022-09-01T04:47:12;96947.50;;;11.76;100.00
32933;BME280;19444;50.518;10.870;2022-09-01T04:50:13;96949.16;;;11.99;100.00
32933;BME280;19444;50.518;10.870;2022-09-01T04:53:12;96945.44;;;12.09;100.00
32933;BME280;19444;50.518;10.870;2022-09-01T04:56:18;96948.59;;;12.11;100.00
32933;BME280;19444;50.518;10.870;2022-09-01T04:59:17;96953.34;;;12.14;100.00
32933;BME280;19444;50.518;10.870;2022-09-01T05:02:17;96950.41;;;12.24;100.00
32933;BME280;19444;50.518;10.870;2022-09-01T05:05:14;96960.25;;;12.29;100.00
32933;BME280;19444;50.518;10.870;2022-09-01T05:08:16;96950.97;;;12.35;100.00
32933;BME280;19444;50.518;10.870;2022-09-01T05:11:19;96950.91;;;12.26;100.00
32933;BME280;19444;50.518;10.870;2022-09-01T05:14:17;96949.41;;;12.42;100.00
32933;BME280;19444;50.518;10.870;2022-09-01T05:17:14;96948.28;;;12.35;100.00
32933;BME280;19444;50.518;10.870;2022-09-01T05:20:13;96953.94;;;12.33;100.00
32933;BME280;19444;50.518;10.870;2022-09-01T05:23:11;96944.59;;;12.53;100.00
32933;BME280;19444;50.518;10.870;2022-09-01T05:26:27;96948.00;;;12.45;100.00
32933;BME280;19444;50.518;10.870;2022-09-01T05:29:27;96959.34;;;12.64;100.00
32933;BME280;19444;50.518;10.870;2022-09-01T05:32:25;96953.97;;;12.64;100.00
32933;BME280;19444;50.518;10.870;2022-09-01T05:35:23;96954.28;;;12.63;100.00
32933;BME280;19444;50.518;10.870;2022-09-01T05:38:28;96951.16;;;12.78;100.00
32933;BME280;19444;50.518;10.870;2022-09-01T05:41:28;96947.88;;;12.81;100.00
32933;BME280;19444;50.518;10.870;2022-09-01T05:44:25;96947.91;;;12.90;100.00
32933;BME280;19444;50.518;10.870;2022-09-01T05:47:21;96958.19;;;12.96;100.00
32933;BME280;19444;50.518;10.870;2022-09-01T05:50:19;96946.31;;;12.97;100.00
32933;BME280;19444;50.518;10.870;2022-09-01T05:53:17;96955.41;;;13.10;100.00
32933;BME280;19444;50.518;10.870;2022-09-01T05:56:18;96952.41;;;13.12;100.00
32933;BME280;19444;50.518;10.870;2022-09-01T05:59:16;96955.31;;;13.24;100.00
32933;BME280;19444;50.518;10.870;2022-09-01T06:02:23;96953.66;;;13.14;100.00
32933;BME280;19444;50.518;10.870;2022-09-01T06:05:23;96957.56;;;13.39;100.00
32933;BME280;19444;50.518;10.870;2022-09-01T06:08:24;96953.13;;;13.43;100.00
32933;BME280;19444;50.518;10.870;2022-09-01T06:11:20;96960.41;;;13.51;100.00
32933;BME280;19444;50.518;10.870;2022-09-01T06:14:20;96949.06;;;13.63;100.00
32933;BME280;19444;50.518;10.870;2022-09-01T06:17:18;96946.19;;;13.68;100.00
32933;BME280;19444;50.518;10.870;2022-09-01T06:20:20;96950.63;;;13.73;100.00
32933;BME280;19444;50.518;10.870;2022-09-01T06:23:18;96948.25;;;13.80;100.00
32933;BME280;19444;50.518;10.870;2022-09-01T06:26:45;96946.19;;;13.85;100.00
32933;BME280;19444;50.518;10.870;2022-09-01T06:29:42;96950.66;;;13.90;100.00
32933;BME280;19444;50.518;10.870;2022-09-01T06:32:41;96951.13;;;13.92;100.00
32933;BME280;19444;50.518;10.870;2022-09-01T06:35:41;96945.22;;;13.99;100.00
32933;BME280;19444;50.518;10.870;2022-09-01T06:38:40;96961.72;;;14.06;100.00
32933;BME280;19444;50.518;10.870;2022-09-01T06:41:38;96958.69;;;14.16;100.00
32933;BME280;19444;50.518;10.870;2022-09-01T06:44:35;96963.75;;;14.26;100.00
32933;BME280;19444;50.518;10.870;2022-09-01T06:47:36;96958.97;;;14.40;100.00
32933;BME280;19444;50.518;10.870;2022-09-01T06:50:33;96956.63;;;14.47;100.00
32933;BME280;19444;50.518;10.870;2022-09-01T06:53:51;96956.59;;;14.56;100.00
32933;BME280;19444;50.518;10.870;2022-09-01T06:56:55;96961.81;;;14.61;100.00
32933;BME280;19444;50.518;10.870;2022-09-01T06:59:53;96965.09;;;14.75;100.00
32933;BME280;19444;50.518;10.870;2022-09-01T07:02:56;96957.41;;;14.95;100.00
32933;BME280;19444;50.518;10.870;2022-09-01T07:05:54;96964.31;;;15.13;100.00
32933;BME280;19444;50.518;10.870;2022-09-01T07:08:59;96961.88;;;14.91;100.00
32933;BME280;19444;50.518;10.870;2022-09-01T07:12:16;96959.06;;;15.08;100.00
32933;BME280;19444;50.518;10.870;2022-09-01T07:15:40;96955.03;;;15.23;100.00
32933;BME280;19444;50.518;10.870;2022-09-01T07:18:58;96966.19;;;15.21;100.00
32933;BME280;19444;50.518;10.870;2022-09-01T07:21:56;96973.81;;;15.19;100.00
32933;BME280;19444;50.518;10.870;2022-09-01T07:25:14;96967.25;;;15.29;100.00
32933;BME280;19444;50.518;10.870;2022-09-01T07:28:15;96970.94;;;15.45;100.00
32933;BME280;19444;50.518;10.870;2022-09-01T07:31:26;96970.69;;;15.38;100.00
32933;BME280;19444;50.518;10.870;2022-09-01T07:34:43;96966.91;;;15.60;100.00
32933;BME280;19444;50.518;10.870;2022-09-01T07:38:01;96966.06;;;15.68;100.00
32933;BME280;19444;50.518;10.870;2022-09-01T07:41:21;96972.53;;;15.76;100.00
32933;BME280;19444;50.518;10.870;2022-09-01T07:44:39;96958.19;;;15.84;100.00
32933;BME280;19444;50.518;10.870;2022-09-01T07:47:36;96964.50;;;15.88;100.00
32933;BME280;19444;50.518;10.870;2022-09-01T07:50:52;96970.28;;;15.99;100.00
32933;BME280;19444;50.518;10.870;2022-09-01T07:54:09;96979.66;;;15.80;100.00
32933;BME280;19444;50.518;10.870;2022-09-01T07:57:09;96974.91;;;16.19;100.00
32933;BME280;19444;50.518;10.870;2022-09-01T08:00:08;96982.81;;;16.03;100.00
32933;BME280;19444;50.518;10.870;2022-09-01T08:03:05;96975.88;;;16.14;100.00
32933;BME280;19444;50.518;10.870;2022-09-01T08:06:09;96988.63;;;16.14;100.00
32933;BME280;19444;50.518;10.870;2022-09-01T08:09:06;96973.47;;;16.34;100.00
32933;BME280;19444;50.518;10.870;2022-09-01T08:12:07;96985.22;;;16.38;100.00
32933;BME280;19444;50.518;10.870;2022-09-01T08:15:06;96990.16;;;16.36;100.00
32933;BME280;19444;50.518;10.870;2022-09-01T08:18:24;96983.03;;;17.10;100.00
32933;BME280;19444;50.518;10.870;2022-09-01T08:21:22;96984.94;;;16.97;100.00
32933;BME280;19444;50.518;10.870;2022-09-01T08:24:20;96974.09;;;16.85;100.00
32933;BME280;19444;50.518;10.870;2022-09-01T08:27:18;96974.22;;;17.37;100.00
32933;BME280;19444;50.518;10.870;2022-09-01T08:30:15;96974.03;;;17.30;100.00
32933;BME280;19444;50.518;10.870;2022-09-01T08:33:12;96980.34;;;17.22;100.00
32933;BME280;19444;50.518;10.870;2022-09-01T08:36:12;96974.13;;;17.33;100.00
32933;BME280;19444;50.518;10.870;2022-09-01T08:39:09;96978.75;;;17.45;100.00
32933;BME280;19444;50.518;10.870;2022-09-01T08:45:56;96975.91;;;17.54;100.00
32933;BME280;19444;50.518;10.870;2022-09-01T08:49:07;96989.47;;;17.78;100.00
32933;BME280;19444;50.518;10.870;2022-09-01T08:52:31;96972.09;;;18.07;98.85
32933;BME280;19444;50.518;10.870;2022-09-01T08:55:42;96965.94;;;18.94;100.00
32933;BME280;19444;50.518;10.870;2022-09-01T08:58:40;96962.84;;;18.52;95.18
32933;BME280;19444;50.518;10.870;2022-09-01T09:09:12;96981.50;;;18.54;85.21
32933;BME280;19444;50.518;10.870;2022-09-01T09:12:44;96973.63;;;18.64;81.82
32933;BME280;19444;50.518;10.870;2022-09-01T09:16:01;96971.06;;;18.68;94.76
32933;BME280;19444;50.518;10.870;2022-09-01T09:19:24;96969.78;;;18.50;82.50
32933;BME280;19444;50.518;10.870;2022-09-01T09:22:21;96975.25;;;18.09;84.08
32933;BME280;19444;50.518;10.870;2022-09-01T09:25:18;96984.72;;;17.75;84.83
32933;BME280;19444;50.518;10.870;2022-09-01T09:28:15;96981.81;;;17.56;87.03
32933;BME280;19444;50.518;10.870;2022-09-01T09:31:32;96984.38;;;17.52;92.08
32933;BME280;19444;50.518;10.870;2022-09-01T09:37:30;96972.72;;;17.64;91.42
32933;BME280;19444;50.518;10.870;2022-09-01T09:40:27;96970.09;;;17.92;89.88
32933;BME280;19444;50.518;10.870;2022-09-01T09:43:25;96963.09;;;18.03;87.84
32933;BME280;19444;50.518;10.870;2022-09-01T09:46:40;96965.03;;;17.90;86.88
32933;BME280;19444;50.518;10.870;2022-09-01T09:49:41;96959.06;;;17.85;86.65
32933;BME280;19444;50.518;10.870;2022-09-01T09:52:45;96957.06;;;18.38;87.75
32933;BME280;19444;50.518;10.870;2022-09-01T09:56:08;96955.16;;;19.14;80.40
32933;BME280;19444;50.518;10.870;2022-09-01T09:59:35;96955.16;;;19.14;85.56
32933;BME280;19444;50.518;10.870;2022-09-01T10:03:05;96963.69;;;19.63;74.39
32933;BME280;19444;50.518;10.870;2022-09-01T10:09:36;96956.34;;;19.32;73.29
32933;BME280;19444;50.518;10.870;2022-09-01T10:12:34;96950.81;;;19.60;70.79
32933;BME280;19444;50.518;10.870;2022-09-01T10:15:32;96957.41;;;19.78;71.03
32933;BME280;19444;50.518;10.870;2022-09-01T10:18:43;96952.78;;;18.96;70.44
32933;BME280;19444;50.518;10.870;2022-09-01T10:21:43;96958.03;;;18.45;70.98
32933;BME280;19444;50.518;10.870;2022-09-01T10:24:40;96951.63;;;18.66;66.96
32933;BME280;19444;50.518;10.870;2022-09-01T10:27:45;96954.50;;;19.36;65.38
32933;BME280;19444;50.518;10.870;2022-09-01T10:30:45;96954.41;;;19.83;59.11
32933;BME280;19444;50.518;10.870;2022-09-01T10:33:43;96956.06;;;19.88;57.67
32933;BME280;19444;50.518;10.870;2022-09-01T10:36:42;96953.09;;;19.11;68.80
32933;BME280;19444;50.518;10.870;2022-09-01T10:43:41;96942.47;;;20.07;66.82
32933;BME280;19444;50.518;10.870;2022-09-01T10:46:42;96942.75;;;20.22;66.99
32933;BME280;19444;50.518;10.870;2022-09-01T10:55:50;96952.13;;;19.19;82.79
32933;BME280;19444;50.518;10.870;2022-09-01T11:02:33;96965.06;;;18.62;82.53
32933;BME280;19444;50.518;10.870;2022-09-01T11:06:07;96959.25;;;19.08;84.71
32933;BME280;19444;50.518;10.870;2022-09-01T11:09:37;96958.03;;;18.89;84.30
32933;BME280;19444;50.518;10.870;2022-09-01T11:17:18;96965.53;;;19.94;74.75
32933;BME280;19444;50.518;10.870;2022-09-01T11:20:27;96954.53;;;19.20;80.46
32933;BME280;19444;50.518;10.870;2022-09-01T11:23:28;96946.81;;;19.07;85.24
32933;BME280;19444;50.518;10.870;2022-09-01T11:30:08;96947.06;;;19.01;86.88
32933;BME280;19444;50.518;10.870;2022-09-01T11:36:54;96961.91;;;19.04;86.00
32933;BME280;19444;50.518;10.870;2022-09-01T11:39:58;96958.97;;;19.28;88.24
32933;BME280;19444;50.518;10.870;2022-09-01T11:43:02;96957.78;;;18.94;88.82
32933;BME280;19444;50.518;10.870;2022-09-01T11:46:24;96964.09;;;19.65;85.17
32933;BME280;19444;50.518;10.870;2022-09-01T11:49:34;96955.44;;;19.59;84.73
32933;BME280;19444;50.518;10.870;2022-09-01T11:52:37;96955.22;;;19.17;87.24
32933;BME280;19444;50.518;10.870;2022-09-01T11:55:49;96947.34;;;18.96;88.46
32933;BME280;19444;50.518;10.870;2022-09-01T11:58:46;96947.78;;;19.14;87.18
32933;BME280;19444;50.518;10.870;2022-09-01T12:01:43;96943.09;;;20.20;86.44
32933;BME280;19444;50.518;10.870;2022-09-01T12:04:40;96950.19;;;19.86;84.63
32933;BME280;19444;50.518;10.870;2022-09-01T12:07:42;96935.06;;;20.27;80.40
32933;BME280;19444;50.518;10.870;2022-09-01T12:10:41;96936.09;;;21.04;74.42
32933;BME280;19444;50.518;10.870;2022-09-01T12:13:40;96940.44;;;20.62;68.74
32933;BME280;19444;50.518;10.870;2022-09-01T12:17:02;96935.25;;;20.77;68.79
32933;BME280;19444;50.518;10.870;2022-09-01T12:20:34;96938.31;;;19.94;71.44
32933;BME280;19444;50.518;10.870;2022-09-01T12:23:36;96936.03;;;19.96;83.22
32933;BME280;19444;50.518;10.870;2022-09-01T12:26:35;96935.59;;;19.94;81.50
32933;BME280;19444;50.518;10.870;2022-09-01T12:29:34;96931.00;;;19.79;85.61
32933;BME280;19444;50.518;10.870;2022-09-01T12:32:33;96923.63;;;19.60;75.28
32933;BME280;19444;50.518;10.870;2022-09-01T12:35:31;96917.28;;;19.56;75.59
32933;BME280;19444;50.518;10.870;2022-09-01T12:38:29;96910.03;;;19.99;76.33
32933;BME280;19444;50.518;10.870;2022-09-01T12:41:35;96902.75;;;20.03;75.53
32933;BME280;19444;50.518;10.870;2022-09-01T12:50:35;96909.19;;;19.95;80.28
32933;BME280;19444;50.518;10.870;2022-09-01T12:53:33;96899.84;;;20.77;67.28
32933;BME280;19444;50.518;10.870;2022-09-01T12:56:36;96897.34;;;20.26;73.83
32933;BME280;19444;50.518;10.870;2022-09-01T12:59:34;96899.06;;;20.14;69.60
32933;BME280;19444;50.518;10.870;2022-09-01T13:02:37;96897.59;;;20.59;64.39
32933;BME280;19444;50.518;10.870;2022-09-01T13:05:48;96896.16;;;21.15;59.88
32933;BME280;19444;50.518;10.870;2022-09-01T13:08:47;96893.50;;;21.45;82.39
32933;BME280;19444;50.518;10.870;2022-09-01T13:11:45;96889.22;;;20.29;66.68
32933;BME280;19444;50.518;10.870;2022-09-01T13:15:03;96900.66;;;19.96;72.00
32933;BME280;19444;50.518;10.870;2022-09-01T13:18:00;96892.84;;;20.14;75.21
32933;BME280;19444;50.518;10.870;2022-09-01T13:20:57;96879.38;;;20.02;76.23
32933;BME280;19444;50.518;10.870;2022-09-01T13:23:54;96889.44;;;20.21;71.25
32933;BME280;19444;50.518;10.870;2022-09-01T13:26:51;96888.56;;;20.36;70.42
32933;BME280;19444;50.518;10.870;2022-09-01T13:30:19;96871.78;;;20.99;63.65
32933;BME280;19444;50.518;10.870;2022-09-01T13:33:16;96879.72;;;20.62;66.81
32933;BME280;19444;50.518;10.870;2022-09-01T13:36:24;96876.09;;;20.77;63.61
32933;BME280;19444;50.518;10.870;2022-09-01T13:39:40;96875.66;;;20.98;71.11
32933;BME280;19444;50.518;10.870;2022-09-01T13:42:37;96875.47;;;20.41;64.13
32933;BME280;19444;50.518;10.870;2022-09-01T13:45:34;96867.69;;;20.63;62.56
32933;BME280;19444;50.518;10.870;2022-09-01T13:48:31;96872.34;;;20.62;59.30
32933;BME280;19444;50.518;10.870;2022-09-01T13:51:51;96855.84;;;21.01;61.06
32933;BME280;19444;50.518;10.870;2022-09-01T13:54:49;96856.94;;;21.79;54.25
32933;BME280;19444;50.518;10.870;2022-09-01T13:57:46;96868.38;;;21.06;57.30
32933;BME280;19444;50.518;10.870;2022-09-01T14:00:46;96865.63;;;20.79;72.22
32933;BME280;19444;50.518;10.870;2022-09-01T14:03:43;96859.72;;;21.00;63.63
32933;BME280;19444;50.518;10.870;2022-09-01T14:06:45;96849.53;;;21.80;55.90
32933;BME280;19444;50.518;10.870;2022-09-01T14:09:42;96853.81;;;21.81;51.06
32933;BME280;19444;50.518;10.870;2022-09-01T14:12:40;96852.63;;;22.12;56.42
32933;BME280;19444;50.518;10.870;2022-09-01T14:15:38;96848.19;;;21.67;49.88
32933;BME280;19444;50.518;10.870;2022-09-01T14:18:36;96842.59;;;21.86;48.49
32933;BME280;19444;50.518;10.870;2022-09-01T14:21:34;96847.16;;;22.08;54.07
32933;BME280;19444;50.518;10.870;2022-09-01T14:24:33;96839.06;;;22.19;53.98
32933;BME280;19444;50.518;10.870;2022-09-01T14:27:37;96836.44;;;21.59;56.45
32933;BME280;19444;50.518;10.870;2022-09-01T14:30:34;96850.72;;;20.96;58.71
32933;BME280;19444;50.518;10.870;2022-09-01T14:33:31;96845.44;;;20.84;57.57
32933;BME280;19444;50.518;10.870;2022-09-01T14:36:28;96857.28;;;20.45;59.94
32933;BME280;19444;50.518;10.870;2022-09-01T14:39:25;96864.66;;;20.45;59.73
32933;BME280;19444;50.518;10.870;2022-09-01T14:42:22;96851.41;;;20.43;63.19
32933;BME280;19444;50.518;10.870;2022-09-01T14:45:25;96861.69;;;20.54;60.77
32933;BME280;19444;50.518;10.870;2022-09-01T14:48:22;96861.06;;;20.41;63.31
32933;BME280;19444;50.518;10.870;2022-09-01T14:51:28;96857.94;;;19.97;62.53
32933;BME280;19444;50.518;10.870;2022-09-01T14:54:45;96846.66;;;20.17;60.75
32933;BME280;19444;50.518;10.870;2022-09-01T14:57:42;96844.38;;;20.00;62.14
32933;BME280;19444;50.518;10.870;2022-09-01T15:00:39;96848.56;;;19.94;63.75
32933;BME280;19444;50.518;10.870;2022-09-01T15:03:37;96847.41;;;19.95;65.94
32933;BME280;19444;50.518;10.870;2022-09-01T15:06:34;96840.25;;;19.87;67.33
32933;BME280;19444;50.518;10.870;2022-09-01T15:09:32;96842.06;;;20.02;63.92
32933;BME280;19444;50.518;10.870;2022-09-01T15:12:29;96839.50;;;20.09;65.15
32933;BME280;19444;50.518;10.870;2022-09-01T15:15:30;96838.16;;;20.00;62.50
32933;BME280;19444;50.518;10.870;2022-09-01T15:18:27;96835.94;;;20.28;67.17
32933;BME280;19444;50.518;10.870;2022-09-01T15:21:28;96821.78;;;20.19;59.29
32933;BME280;19444;50.518;10.870;2022-09-01T15:24:27;96838.50;;;20.40;54.37
32933;BME280;19444;50.518;10.870;2022-09-01T15:27:24;96837.16;;;19.88;59.65
32933;BME280;19444;50.518;10.870;2022-09-01T15:30:21;96832.19;;;20.13;66.46
32933;BME280;19444;50.518;10.870;2022-09-01T15:33:19;96832.28;;;19.98;57.59
32933;BME280;19444;50.518;10.870;2022-09-01T15:36:19;96830.00;;;20.00;65.36
32933;BME280;19444;50.518;10.870;2022-09-01T15:39:17;96826.91;;;20.43;55.28
32933;BME280;19444;50.518;10.870;2022-09-01T15:42:13;96831.63;;;20.47;55.52
32933;BME280;19444;50.518;10.870;2022-09-01T15:45:18;96821.72;;;20.58;54.30
32933;BME280;19444;50.518;10.870;2022-09-01T15:48:15;96815.56;;;20.64;56.59
32933;BME280;19444;50.518;10.870;2022-09-01T15:51:28;96815.78;;;20.52;55.10
32933;BME280;19444;50.518;10.870;2022-09-01T15:54:26;96816.38;;;20.65;65.15
32933;BME280;19444;50.518;10.870;2022-09-01T15:57:26;96813.00;;;20.49;56.91
32933;BME280;19444;50.518;10.870;2022-09-01T16:00:25;96816.84;;;20.48;55.06
32933;BME280;19444;50.518;10.870;2022-09-01T16:03:22;96811.25;;;20.60;56.18
32933;BME280;19444;50.518;10.870;2022-09-01T16:06:21;96814.78;;;20.64;54.89
32933;BME280;19444;50.518;10.870;2022-09-01T16:09:18;96817.09;;;20.62;56.11
32933;BME280;19444;50.518;10.870;2022-09-01T16:12:18;96811.53;;;20.55;55.31
32933;BME280;19444;50.518;10.870;2022-09-01T16:15:20;96807.41;;;20.64;62.70
32933;BME280;19444;50.518;10.870;2022-09-01T16:18:55;96812.72;;;20.34;62.67
32933;BME280;19444;50.518;10.870;2022-09-01T16:22:22;96824.00;;;20.33;64.06
32933;BME280;19444;50.518;10.870;2022-09-01T16:25:31;96818.97;;;20.12;61.67
32933;BME280;19444;50.518;10.870;2022-09-01T16:28:34;96813.19;;;19.94;63.32
32933;BME280;19444;50.518;10.870;2022-09-01T16:31:31;96821.53;;;20.05;65.67
32933;BME280;19444;50.518;10.870;2022-09-01T16:34:29;96821.50;;;19.82;68.14
32933;BME280;19444;50.518;10.870;2022-09-01T16:37:51;96825.44;;;19.65;67.95
32933;BME280;19444;50.518;10.870;2022-09-01T16:44:06;96826.69;;;19.32;71.18